Time;durP1;ratioP1;P1;durP2;ratioP2;P2;SDS_P1;SDS_P2;PMS_P1;PMS_P2;Temp;Humidity;BMP_temperature;BMP_pressure;BME280_temperature;BME280_humidity;BME280_pressure;Samples;Min_cycle;Max_cycle;Signal;HPM_P1;HPM_P2
2021/11/14 00:00:30;;;;;;;13.67;8.53;;;17.30;60.30;;;;;;10485005;28;20742;-68
2021/11/14 00:05:53;;;;;;;13.77;8.33;;;17.30;60.40;;;;;;10502728;28;20571;-68
2021/11/14 00:11:17;;;;;;;12.50;7.87;;;17.30;60.70;;;;;;10457146;28;20224;-68
2021/11/14 00:16:40;;;;;;;13.10;8.43;;;17.30;60.00;;;;;;10468795;28;20211;-69
2021/11/14 00:22:03;;;;;;;13.47;8.40;;;17.30;60.00;;;;;;10474343;28;20213;-68
2021/11/14 00:27:25;;;;;;;12.80;8.23;;;17.30;60.00;;;;;;10495398;28;20478;-68
2021/11/14 00:32:51;;;;;;;12.33;8.00;;;17.30;60.20;;;;;;10495623;28;20196;-68
2021/11/14 00:38:13;;;;;;;11.47;7.20;;;17.30;60.30;;;;;;10495599;28;20228;-68
2021/11/14 00:43:36;;;;;;;10.67;7.33;;;17.30;60.40;;;;;;10494873;28;20204;-68
2021/11/14 00:49:00;;;;;;;11.00;7.37;;;17.30;60.30;;;;;;10465442;28;20213;-67
2021/11/14 00:54:22;;;;;;;11.50;7.80;;;17.30;60.10;;;;;;10457635;28;20203;-68
2021/11/14 00:59:44;;;;;;;10.97;7.13;;;17.30;60.10;;;;;;10493703;28;20212;-68
2021/11/14 01:05:10;;;;;;;9.97;6.87;;;17.30;60.10;;;;;;10490613;28;20208;-68
2021/11/14 01:10:35;;;;;;;10.20;6.87;;;17.30;60.30;;;;;;10493530;28;20212;-68
2021/11/14 01:15:57;;;;;;;9.87;6.67;;;17.20;60.40;;;;;;10482456;28;20197;-68
2021/11/14 01:21:20;;;;;;;8.43;6.33;;;17.30;60.50;;;;;;10489427;28;20262;-68
2021/11/14 01:26:43;;;;;;;9.30;6.97;;;17.30;60.40;;;;;;10493852;28;20222;-68
2021/11/14 01:32:08;;;;;;;9.87;7.20;;;17.30;60.30;;;;;;10493705;28;20231;-68
2021/11/14 01:37:31;;;;;;;9.60;6.70;;;17.30;60.20;;;;;;10492003;28;20702;-68
2021/11/14 01:42:54;;;;;;;11.43;6.67;;;17.30;60.30;;;;;;10488219;28;20196;-68
2021/11/14 01:48:16;;;;;;;10.63;7.43;;;17.20;60.40;;;;;;10492881;28;20232;-68
2021/11/14 01:53:41;;;;;;;8.00;6.47;;;17.20;60.50;;;;;;10490162;28;20691;-68
2021/11/14 01:59:03;;;;;;;10.03;7.10;;;17.20;60.70;;;;;;10490655;28;20576;-68
2021/11/14 02:04:25;;;;;;;13.10;8.57;;;17.30;60.60;;;;;;10471825;28;20201;-69
2021/11/14 02:09:49;;;;;;;13.43;8.63;;;17.20;60.40;;;;;;10451478;28;20220;-68
2021/11/14 02:15:11;;;;;;;9.97;7.03;;;17.30;60.40;;;;;;10451348;28;20227;-68
2021/11/14 02:20:36;;;;;;;13.37;8.67;;;17.30;60.60;;;;;;10451229;28;20220;-67
2021/11/14 02:25:58;;;;;;;13.63;8.97;;;17.30;60.40;;;;;;10485092;28;20243;-68
2021/11/14 02:31:21;;;;;;;13.37;8.43;;;17.30;60.40;;;;;;10492068;28;20208;-68
2021/11/14 02:36:44;;;;;;;11.10;7.37;;;17.30;60.40;;;;;;10493034;28;20219;-68
2021/11/14 02:42:07;;;;;;;13.03;8.13;;;17.30;60.60;;;;;;10479319;22;20731;-64
2021/11/14 02:47:29;;;;;;;12.77;9.00;;;17.30;60.40;;;;;;10449008;28;20208;-64
2021/11/14 02:52:54;;;;;;;15.03;9.10;;;17.30;60.40;;;;;;10429247;28;20728;-63
2021/11/14 02:58:18;;;;;;;14.63;9.10;;;17.30;60.40;;;;;;10425862;28;20221;-64
2021/11/14 03:03:41;;;;;;;12.33;8.10;;;17.30;60.40;;;;;;10449122;28;20208;-65
2021/11/14 03:09:06;;;;;;;12.10;8.00;;;17.20;60.60;;;;;;10455093;28;20220;-63
2021/11/14 03:14:29;;;;;;;11.00;7.23;;;17.20;60.80;;;;;;10429417;28;20200;-65
2021/11/14 03:19:51;;;;;;;13.70;8.83;;;17.20;60.90;;;;;;10435693;28;20236;-63
2021/11/14 03:25:15;;;;;;;15.73;10.20;;;17.20;60.70;;;;;;10446577;28;20198;-63
2021/11/14 03:30:37;;;;;;;12.93;8.30;;;17.30;60.60;;;;;;10455502;28;20608;-64
2021/11/14 03:36:04;;;;;;;11.97;8.03;;;17.30;60.70;;;;;;10454581;28;20580;-63
2021/11/14 03:41:29;;;;;;;12.17;8.67;;;17.30;60.90;;;;;;10432989;28;20223;-63
2021/11/14 03:46:52;;;;;;;17.23;10.93;;;17.30;60.70;;;;;;10456493;28;20196;-63
2021/11/14 03:52:14;;;;;;;14.57;10.43;;;17.30;60.60;;;;;;10456832;28;20228;-64
2021/11/14 03:57:40;;;;;;;15.83;10.47;;;17.30;60.50;;;;;;10456516;28;20703;-65
2021/11/14 04:03:02;;;;;;;15.03;10.10;;;17.20;60.70;;;;;;10455829;28;20221;-63
2021/11/14 04:08:25;;;;;;;17.27;10.70;;;17.20;60.90;;;;;;10455310;28;20204;-63
2021/11/14 04:13:49;;;;;;;13.03;9.20;;;17.20;61.00;;;;;;10455155;28;20656;-64
2021/11/14 04:19:12;;;;;;;11.27;8.50;;;17.20;61.10;;;;;;10419082;28;20570;-64
2021/11/14 04:24:34;;;;;;;17.40;11.07;;;17.30;61.00;;;;;;10430667;28;20216;-65
2021/11/14 04:29:58;;;;;;;19.07;12.77;;;17.30;60.90;;;;;;10453887;28;20684;-64
2021/11/14 04:35:21;;;;;;;18.23;11.70;;;17.30;60.80;;;;;;10451887;28;20204;-64
2021/11/14 04:40:44;;;;;;;20.07;12.40;;;17.20;60.80;;;;;;10453186;28;20213;-64
2021/11/14 04:46:08;;;;;;;18.23;11.83;;;17.20;61.00;;;;;;10453687;28;20193;-64
2021/11/14 04:51:30;;;;;;;17.20;11.00;;;17.20;61.10;;;;;;10452831;28;20209;-63
2021/11/14 04:56:52;;;;;;;21.00;13.70;;;17.20;61.20;;;;;;10452377;28;20193;-63
2021/11/14 05:02:16;;;;;;;25.30;16.60;;;17.20;61.00;;;;;;10452314;28;20599;-64
2021/11/14 05:07:38;;;;;;;26.00;15.70;;;17.20;60.80;;;;;;10451674;28;20668;-63
2021/11/14 05:13:00;;;;;;;24.33;16.63;;;17.20;60.80;;;;;;10453164;28;20228;-63
2021/11/14 05:18:24;;;;;;;24.00;14.90;;;17.20;60.80;;;;;;10439645;28;20209;-63
2021/11/14 05:23:46;;;;;;;20.17;13.10;;;17.20;60.90;;;;;;10434672;28;20200;-65
2021/11/14 05:29:08;;;;;;;20.27;13.17;;;17.20;61.00;;;;;;10448538;28;20212;-63
2021/11/14 05:34:32;;;;;;;23.17;14.53;;;17.30;61.00;;;;;;10451726;28;20208;-64
2021/11/14 05:39:54;;;;;;;25.17;16.33;;;17.30;60.80;;;;;;10448469;28;20738;-64
2021/11/14 05:45:16;;;;;;;20.80;13.97;;;17.30;60.70;;;;;;10449602;28;20200;-64
2021/11/14 05:50:40;;;;;;;20.70;13.40;;;17.30;60.90;;;;;;10452635;28;20228;-64
2021/11/14 05:56:02;;;;;;;28.00;17.37;;;17.30;60.90;;;;;;10452158;28;20654;-63
2021/11/14 06:01:29;;;;;;;22.20;15.67;;;17.20;60.60;;;;;;10451651;28;20226;-64
2021/11/14 06:06:52;;;;;;;18.17;13.43;;;17.20;60.60;;;;;;10414497;28;20205;-63
2021/11/14 06:12:14;;;;;;;20.97;14.60;;;17.30;60.90;;;;;;10409323;28;20222;-63
2021/11/14 06:17:37;;;;;;;20.70;14.17;;;17.30;61.00;;;;;;10429153;28;20197;-63
2021/11/14 06:23:00;;;;;;;19.63;14.40;;;17.30;60.90;;;;;;10424433;28;20222;-63
2021/11/14 06:28:22;;;;;;;19.47;13.97;;;17.40;60.90;;;;;;10415999;28;20194;-63
2021/11/14 06:33:44;;;;;;;19.67;14.37;;;17.40;60.80;;;;;;10419793;28;20585;-65
2021/11/14 06:39:08;;;;;;;18.60;13.57;;;17.40;60.70;;;;;;10421669;28;20667;-63
2021/11/14 06:44:30;;;;;;;22.13;15.07;;;17.40;60.70;;;;;;10437740;28;20554;-64
2021/11/14 06:49:52;;;;;;;21.40;13.73;;;17.40;60.60;;;;;;10435797;28;20228;-64
2021/11/14 06:55:17;;;;;;;22.53;13.77;;;17.40;60.60;;;;;;10439209;28;20276;-63
2021/11/14 07:00:42;;;;;;;23.87;13.90;;;17.50;60.60;;;;;;10435106;28;20224;-63
2021/11/14 07:06:04;;;;;;;20.20;13.77;;;17.40;60.50;;;;;;10435316;28;20202;-63
2021/11/14 07:11:27;;;;;;;19.77;12.97;;;17.50;60.50;;;;;;10436570;28;20206;-64
2021/11/14 07:16:50;;;;;;;18.63;12.33;;;17.40;60.50;;;;;;10442225;28;20197;-64
2021/11/14 07:22:12;;;;;;;21.13;13.03;;;17.40;60.40;;;;;;10455105;28;20221;-63
2021/11/14 07:27:35;;;;;;;17.60;12.10;;;17.40;60.40;;;;;;10433332;28;20284;-63
2021/11/14 07:32:57;;;;;;;17.87;11.73;;;17.40;60.40;;;;;;10415653;28;20236;-63
2021/11/14 07:38:19;;;;;;;18.33;11.27;;;17.40;60.40;;;;;;10415320;28;20703;-62
2021/11/14 07:43:43;;;;;;;15.43;10.97;;;17.40;60.40;;;;;;10415136;28;20205;-63
2021/11/14 07:49:05;;;;;;;17.10;11.40;;;17.50;60.50;;;;;;10433043;28;20220;-62
2021/11/14 07:54:27;;;;;;;17.27;11.03;;;17.50;60.10;;;;;;10428597;28;20201;-65
2021/11/14 07:59:51;;;;;;;14.13;10.03;;;17.40;60.50;;;;;;10414682;28;20214;-64
2021/11/14 08:05:14;;;;;;;15.03;10.37;;;17.50;60.50;;;;;;10414984;28;20194;-63
2021/11/14 08:10:38;;;;;;;12.73;9.13;;;17.40;60.50;;;;;;10413323;28;20222;-65
2021/11/14 08:16:02;;;;;;;12.67;9.47;;;17.50;60.70;;;;;;10425566;28;20213;-63
2021/11/14 08:21:24;;;;;;;14.43;10.20;;;17.50;60.70;;;;;;10451342;28;20267;-64
2021/11/14 08:26:46;;;;;;;12.43;9.43;;;17.40;60.50;;;;;;10432368;28;20193;-64
2021/11/14 08:32:10;;;;;;;12.43;9.03;;;17.40;60.60;;;;;;10427174;28;20209;-63
2021/11/14 08:37:32;;;;;;;14.63;9.93;;;17.50;60.70;;;;;;10428019;28;20190;-66
2021/11/14 08:42:55;;;;;;;13.37;10.07;;;17.40;60.60;;;;;;10486606;22;20224;-63
2021/11/14 08:48:19;;;;;;;12.67;9.63;;;17.40;60.60;;;;;;10417884;28;20239;-61
2021/11/14 08:53:41;;;;;;;14.50;10.37;;;17.50;60.70;;;;;;10440267;28;20197;-64
2021/11/14 08:59:03;;;;;;;13.80;9.80;;;17.50;60.60;;;;;;10421533;28;20449;-62
2021/11/14 09:04:27;;;;;;;14.60;9.50;;;17.50;60.50;;;;;;10427250;28;20316;-62
2021/11/14 09:09:50;;;;;;;14.50;9.87;;;17.40;60.50;;;;;;10425440;28;20558;-64
2021/11/14 09:15:13;;;;;;;12.27;9.67;;;17.40;60.50;;;;;;10424164;28;20618;-60
2021/11/14 09:20:36;;;;;;;13.93;9.30;;;17.50;60.60;;;;;;10441388;28;20252;-61
2021/11/14 09:26:00;;;;;;;12.03;8.63;;;17.50;60.60;;;;;;10411224;28;20232;-62
2021/11/14 09:31:22;;;;;;;12.43;9.70;;;17.50;60.80;;;;;;10412385;28;20200;-63
2021/11/14 09:36:47;;;;;;;13.53;9.77;;;17.50;60.70;;;;;;10421656;28;20591;-62
2021/11/14 09:42:10;;;;;;;12.27;9.23;;;17.50;60.70;;;;;;10411081;28;20217;-62
2021/11/14 09:47:33;;;;;;;12.77;9.03;;;17.50;61.30;;;;;;10428212;28;20216;-62
2021/11/14 09:52:57;;;;;;;15.57;9.43;;;17.40;60.60;;;;;;10447655;28;20673;-62
2021/11/14 09:58:21;;;;;;;13.47;9.83;;;17.50;60.60;;;;;;10451012;28;20217;-62
2021/11/14 10:03:44;;;;;;;12.13;8.80;;;17.50;60.60;;;;;;10442115;28;20204;-62
2021/11/14 10:09:08;;;;;;;12.33;9.13;;;17.40;60.60;;;;;;10432714;28;20610;-63
2021/11/14 10:14:31;;;;;;;12.23;8.57;;;17.50;60.60;;;;;;10416231;28;20589;-62
2021/11/14 10:20:11;;;;;;;11.73;8.33;;;17.40;60.60;;;;;;10439999;28;20250;-61
2021/11/14 10:25:35;;;;;;;11.17;8.23;;;17.50;60.60;;;;;;10427764;28;20218;-59
2021/11/14 10:30:58;;;;;;;13.10;9.20;;;17.50;60.70;;;;;;10427014;28;20657;-60
2021/11/14 10:36:21;;;;;;;11.80;9.20;;;17.40;60.60;;;;;;10420180;28;20694;-59
2021/11/14 10:41:45;;;;;;;13.17;9.13;;;17.50;60.70;;;;;;10424643;28;20213;-60
2021/11/14 10:47:10;;;;;;;11.17;8.30;;;17.40;60.70;;;;;;10430498;28;20595;-61
2021/11/14 10:52:33;;;;;;;13.53;9.00;;;17.40;60.60;;;;;;10427031;28;20205;-60
2021/11/14 10:57:56;;;;;;;11.57;8.73;;;17.40;60.60;;;;;;10412924;28;20216;-62
2021/11/14 11:03:20;;;;;;;11.40;8.70;;;17.50;60.60;;;;;;10443314;28;20583;-59
2021/11/14 11:08:46;;;;;;;10.97;7.63;;;17.50;60.60;;;;;;10436001;28;20221;-62
2021/11/14 11:14:10;;;;;;;12.33;8.57;;;17.40;60.60;;;;;;10448212;28;20189;-62
2021/11/14 11:19:32;;;;;;;11.43;8.07;;;17.40;60.50;;;;;;10417094;28;20602;-62
2021/11/14 11:24:55;;;;;;;10.23;8.13;;;17.50;60.60;;;;;;10453971;28;20213;-62
2021/11/14 11:30:27;;;;;;;10.43;8.13;;;17.50;60.70;;;;;;10415695;28;20194;-62
2021/11/14 11:35:49;;;;;;;11.10;8.40;;;17.40;60.50;;;;;;10427392;28;20218;-62
2021/11/14 11:41:14;;;;;;;10.93;8.03;;;17.50;60.50;;;;;;10417754;28;20209;-62
2021/11/14 11:46:40;;;;;;;10.47;7.57;;;17.50;60.60;;;;;;10453568;28;20220;-62
2021/11/14 11:52:08;;;;;;;10.13;7.73;;;17.50;60.70;;;;;;10423485;28;20280;-63
2021/11/14 11:57:30;;;;;;;9.77;7.70;;;17.50;60.60;;;;;;10420747;28;20228;-62
2021/11/14 12:02:54;;;;;;;10.37;6.93;;;17.50;60.60;;;;;;10439917;28;20603;-59
2021/11/14 12:08:16;;;;;;;9.17;6.47;;;17.50;60.70;;;;;;10432533;28;20213;-62
2021/11/14 12:13:41;;;;;;;10.07;7.07;;;17.50;60.70;;;;;;10435664;28;20182;-63
2021/11/14 12:19:05;;;;;;;10.90;7.70;;;17.50;60.60;;;;;;10424898;28;20349;-63
2021/11/14 12:24:28;;;;;;;9.73;8.50;;;17.50;60.20;;;;;;10444585;28;20225;-63
2021/11/14 12:29:58;;;;;;;10.10;7.57;;;17.60;59.80;;;;;;10448197;28;20204;-63
2021/11/14 12:35:24;;;;;;;9.60;7.00;;;17.60;60.00;;;;;;10436257;28;20222;-64
2021/11/14 12:40:53;;;;;;;9.17;6.53;;;17.50;60.20;;;;;;10406126;28;20578;-63
2021/11/14 12:46:17;;;;;;;9.77;7.50;;;17.50;60.40;;;;;;10405917;28;20209;-64
2021/11/14 12:51:41;;;;;;;9.27;6.80;;;17.50;59.90;;;;;;10405739;28;20209;-66
2021/11/14 12:57:12;;;;;;;9.47;6.37;;;17.60;59.80;;;;;;10410503;28;20586;-62
2021/11/14 13:02:34;;;;;;;8.37;6.33;;;17.60;59.90;;;;;;10437783;28;20597;-63
2021/11/14 13:08:00;;;;;;;7.67;6.13;;;17.60;60.20;;;;;;10410645;28;20710;-64
2021/11/14 13:13:28;;;;;;;8.30;6.10;;;17.50;60.30;;;;;;10433524;28;20200;-60
2021/11/14 13:18:51;;;;;;;9.27;6.27;;;17.50;60.40;;;;;;10427537;28;20214;-63
2021/11/14 13:24:16;;;;;;;7.57;6.00;;;17.50;60.50;;;;;;10422069;28;20216;-63
2021/11/14 13:29:40;;;;;;;8.70;5.80;;;17.50;60.50;;;;;;10416944;28;20186;-64
2021/11/14 13:35:03;;;;;;;8.93;6.03;;;17.50;60.80;;;;;;10438548;28;20232;-63
2021/11/14 13:40:26;;;;;;;7.73;5.50;;;17.60;60.90;;;;;;10436428;28;20209;-64
2021/11/14 13:45:50;;;;;;;7.40;5.63;;;17.60;60.60;;;;;;10422315;28;20221;-64
2021/11/14 13:51:12;;;;;;;8.17;5.73;;;17.60;60.50;;;;;;10445505;28;20193;-64
2021/11/14 13:56:43;;;;;;;7.20;5.83;;;17.70;60.40;;;;;;10434519;28;20228;-66
2021/11/14 14:02:07;;;;;;;27.20;7.80;;;17.70;60.60;;;;;;10430616;28;20835;-65
2021/11/14 14:07:31;;;;;;;10.23;5.60;;;18.20;58.90;;;;;;10443437;28;20212;-65
2021/11/14 14:12:56;;;;;;;8.03;6.50;;;17.80;59.80;;;;;;10449058;28;20277;-66
2021/11/14 14:18:21;;;;;;;7.43;5.50;;;17.70;59.30;;;;;;10434050;28;20226;-65
2021/11/14 14:23:43;;;;;;;9.60;6.70;;;17.70;59.60;;;;;;10442838;28;20216;-66
2021/11/14 14:29:08;;;;;;;9.07;6.73;;;17.70;59.50;;;;;;10423134;28;20202;-65
2021/11/14 14:34:34;;;;;;;13.03;7.90;;;17.80;59.20;;;;;;10427553;28;20454;-64
2021/11/14 14:39:56;;;;;;;8.80;6.63;;;18.00;59.20;;;;;;10461345;22;20224;-67
2021/11/14 14:45:22;;;;;;;11.10;6.33;;;17.90;59.20;;;;;;10460779;28;20213;-67
2021/11/14 14:50:54;;;;;;;10.40;6.80;;;17.80;59.50;;;;;;10452712;28;20566;-67
2021/11/14 14:56:19;;;;;;;9.47;6.67;;;17.80;59.60;;;;;;10445542;28;20244;-67
2021/11/14 15:01:52;;;;;;;10.10;7.40;;;17.80;59.60;;;;;;10448513;28;20562;-67
2021/11/14 15:07:16;;;;;;;12.03;7.50;;;17.80;59.50;;;;;;10434324;28;20221;-68
2021/11/14 15:12:39;;;;;;;11.97;8.00;;;17.80;59.40;;;;;;10435363;28;20275;-67
2021/11/14 15:18:05;;;;;;;11.50;8.63;;;17.80;59.40;;;;;;10418429;28;20614;-67
2021/11/14 15:23:27;;;;;;;10.87;8.33;;;17.80;59.40;;;;;;10450140;28;20224;-66
2021/11/14 15:28:50;;;;;;;11.60;9.10;;;17.80;59.50;;;;;;10431010;28;20218;-67
2021/11/14 15:34:13;;;;;;;12.67;9.07;;;17.80;59.50;;;;;;10445673;28;20202;-67
2021/11/14 15:39:37;;;;;;;14.07;9.50;;;17.80;59.40;;;;;;10438937;28;20601;-66
2021/11/14 15:44:59;;;;;;;13.90;10.43;;;17.80;59.40;;;;;;10420528;28;20248;-66
2021/11/14 15:50:24;;;;;;;17.57;11.40;;;17.80;59.70;;;;;;10446335;28;20255;-67
2021/11/14 15:55:48;;;;;;;19.57;13.50;;;17.70;59.20;;;;;;10436928;28;20217;-68
2021/11/14 16:01:10;;;;;;;17.63;12.83;;;17.80;59.60;;;;;;10444198;28;20213;-66
2021/11/14 16:06:34;;;;;;;16.43;11.27;;;17.90;60.80;;;;;;10446784;28;20217;-66
2021/11/14 16:11:56;;;;;;;15.60;10.93;;;17.90;60.20;;;;;;10415725;28;20186;-67
2021/11/14 16:17:18;;;;;;;18.67;13.57;;;17.90;59.50;;;;;;10437769;28;20218;-66
2021/11/14 16:22:42;;;;;;;22.37;14.47;;;18.00;58.90;;;;;;10426178;28;20216;-66
2021/11/14 16:28:04;;;;;;;21.63;14.20;;;17.90;58.30;;;;;;10423968;28;20705;-66
2021/11/14 16:33:26;;;;;;;18.27;13.00;;;17.90;58.50;;;;;;10444996;28;20218;-66
2021/11/14 16:38:50;;;;;;;21.80;14.23;;;17.90;58.80;;;;;;10442467;28;20709;-66
2021/11/14 16:44:13;;;;;;;21.70;15.03;;;17.90;58.70;;;;;;10445949;28;20220;-66
2021/11/14 16:49:36;;;;;;;22.50;14.40;;;17.90;58.50;;;;;;10445027;28;20213;-65
2021/11/14 16:55:00;;;;;;;25.37;16.23;;;17.90;58.10;;;;;;10413009;28;20575;-66
2021/11/14 17:00:23;;;;;;;25.77;15.20;;;17.90;57.60;;;;;;10421249;28;20403;-66
2021/11/14 17:05:45;;;;;;;25.50;15.70;;;17.90;57.10;;;;;;10411304;28;20229;-66
2021/11/14 17:11:09;;;;;;;25.13;16.07;;;17.90;57.00;;;;;;10410805;28;20197;-65
2021/11/14 17:16:31;;;;;;;26.73;16.33;;;17.90;57.00;;;;;;10414417;28;20213;-66
2021/11/14 17:21:53;;;;;;;22.53;14.30;;;17.90;57.20;;;;;;10442607;28;20693;-65
2021/11/14 17:27:18;;;;;;;22.63;14.57;;;17.90;57.00;;;;;;10410962;28;20217;-67
2021/11/14 17:32:41;;;;;;;19.37;13.27;;;17.90;57.10;;;;;;10409562;28;20267;-65
2021/11/14 17:38:05;;;;;;;19.43;13.33;;;17.80;57.70;;;;;;10423402;28;20221;-66
2021/11/14 17:43:28;;;;;;;19.80;13.70;;;17.90;58.30;;;;;;10419444;28;20218;-65
2021/11/14 17:48:51;;;;;;;27.33;15.97;;;17.90;58.00;;;;;;10451312;28;20613;-67
2021/11/14 17:54:13;;;;;;;30.30;17.70;;;17.90;57.30;;;;;;10413927;28;20202;-66
2021/11/14 17:59:38;;;;;;;29.60;17.33;;;17.90;56.60;;;;;;10409646;28;20197;-68
2021/11/14 18:05:00;;;;;;;24.47;16.00;;;17.90;56.60;;;;;;10410229;28;20595;-67
2021/11/14 18:10:24;;;;;;;25.33;15.43;;;17.80;56.90;;;;;;10419904;28;20189;-65
2021/11/14 18:15:47;;;;;;;27.93;16.37;;;17.80;57.20;;;;;;10420442;28;20220;-66
2021/11/14 18:21:09;;;;;;;25.60;16.33;;;17.80;57.00;;;;;;10447066;28;20221;-67
2021/11/14 18:26:31;;;;;;;26.23;15.50;;;17.80;57.20;;;;;;10459492;28;20227;-67
2021/11/14 18:31:55;;;;;;;25.63;16.30;;;17.80;57.50;;;;;;10453572;28;20200;-65
2021/11/14 18:37:17;;;;;;;27.00;16.37;;;17.80;57.70;;;;;;10419242;28;20225;-67
2021/11/14 18:42:40;;;;;;;24.57;16.00;;;17.70;57.70;;;;;;10417532;28;20225;-65
2021/11/14 18:48:04;;;;;;;23.30;14.77;;;17.70;57.70;;;;;;10446389;28;20228;-67
2021/11/14 18:53:27;;;;;;;25.47;15.80;;;17.80;57.90;;;;;;10444864;28;20197;-66
2021/11/14 18:58:51;;;;;;;24.87;15.70;;;17.80;58.20;;;;;;10435484;28;20213;-66
2021/11/14 19:04:15;;;;;;;28.93;17.53;;;17.80;57.30;;;;;;10434492;28;20218;-66
2021/11/14 19:09:38;;;;;;;27.27;16.53;;;17.80;57.00;;;;;;10434415;28;20200;-66
2021/11/14 19:15:00;;;;;;;26.83;14.80;;;17.80;57.00;;;;;;10436471;28;20205;-66
2021/11/14 19:20:24;;;;;;;23.83;15.43;;;17.80;57.30;;;;;;10431531;28;20197;-66
2021/11/14 19:25:48;;;;;;;23.17;15.00;;;17.90;57.60;;;;;;10437119;28;20209;-66
2021/11/14 19:31:12;;;;;;;22.73;14.27;;;17.80;57.30;;;;;;10441679;28;20570;-66
2021/11/14 19:36:35;;;;;;;26.47;16.10;;;17.90;57.50;;;;;;10432187;28;20623;-66
2021/11/14 19:41:58;;;;;;;24.10;14.97;;;17.90;56.90;;;;;;10428754;28;20217;-66
2021/11/14 19:47:20;;;;;;;24.90;15.33;;;17.90;57.30;;;;;;10439001;28;20694;-66
2021/11/14 19:52:45;;;;;;;27.30;15.43;;;17.90;57.20;;;;;;10436984;28;20299;-66
2021/11/14 19:58:07;;;;;;;25.70;16.47;;;17.90;56.70;;;;;;10433711;28;20629;-66
2021/11/14 20:03:29;;;;;;;25.47;15.83;;;17.90;56.60;;;;;;10431295;28;20209;-66
2021/11/14 20:08:53;;;;;;;27.93;15.97;;;17.90;57.40;;;;;;10446229;28;20214;-66
2021/11/14 20:14:16;;;;;;;29.23;16.70;;;17.90;56.50;;;;;;10453427;28;20189;-66
2021/11/14 20:19:38;;;;;;;28.20;15.97;;;17.90;56.40;;;;;;10429421;28;20197;-66
2021/11/14 20:25:02;;;;;;;23.90;14.90;;;17.90;56.60;;;;;;10453084;28;20239;-66
2021/11/14 20:30:24;;;;;;;24.70;15.53;;;17.90;56.80;;;;;;10454375;28;20271;-66
2021/11/14 20:35:46;;;;;;;25.30;16.23;;;17.90;56.60;;;;;;10454369;28;20213;-66
2021/11/14 20:41:10;;;;;;;25.30;15.70;;;17.90;56.60;;;;;;10453686;28;20221;-66
2021/11/14 20:46:33;;;;;;;24.80;15.60;;;17.80;56.60;;;;;;10463431;22;20229;-64
2021/11/14 20:51:55;;;;;;;27.73;14.77;;;17.90;57.20;;;;;;10418157;28;20277;-64
2021/11/14 20:57:18;;;;;;;27.03;17.03;;;17.90;56.90;;;;;;10403532;28;20218;-63
2021/11/14 21:02:41;;;;;;;30.30;17.23;;;17.90;56.40;;;;;;10371967;28;20218;-63
2021/11/14 21:08:03;;;;;;;26.23;15.50;;;17.90;56.50;;;;;;10381631;28;20233;-63
2021/11/14 21:13:27;;;;;;;26.00;15.47;;;17.90;57.00;;;;;;10412034;28;20565;-64
2021/11/14 21:18:49;;;;;;;26.53;16.50;;;17.90;56.70;;;;;;10411751;28;20225;-63
2021/11/14 21:24:11;;;;;;;27.03;15.67;;;17.90;56.50;;;;;;10399707;28;20626;-64
2021/11/14 21:29:36;;;;;;;24.30;14.93;;;17.90;56.40;;;;;;10371052;28;20239;-63
2021/11/14 21:40:40;;;;;;;28.73;16.43;;;17.90;56.50;;;;;;10372392;28;20193;-64
2021/11/14 21:46:04;;;;;;;26.70;15.77;;;17.90;56.40;;;;;;10369016;28;20230;-64
2021/11/14 21:51:27;;;;;;;28.30;16.40;;;17.80;56.50;;;;;;10346308;28;20201;-65
2021/11/14 21:56:49;;;;;;;26.47;16.00;;;17.70;56.70;;;;;;10369625;28;20294;-63
2021/11/14 22:02:13;;;;;;;27.67;16.73;;;17.70;57.20;;;;;;10369570;28;20214;-63
2021/11/14 22:07:35;;;;;;;25.83;15.67;;;17.60;57.60;;;;;;10383850;28;20222;-64
2021/11/14 22:12:58;;;;;;;24.70;15.60;;;17.50;57.80;;;;;;10410241;28;20205;-63
2021/11/14 22:18:22;;;;;;;28.00;16.97;;;17.50;58.00;;;;;;10410191;28;20225;-63
2021/11/14 22:23:44;;;;;;;26.17;15.10;;;17.50;57.90;;;;;;10396096;28;20594;-64
2021/11/14 22:29:06;;;;;;;25.57;15.13;;;17.50;58.10;;;;;;10369320;28;20225;-64
2021/11/14 22:34:29;;;;;;;25.33;15.00;;;17.50;58.20;;;;;;10368997;28;20191;-64
2021/11/14 22:39:52;;;;;;;25.80;15.87;;;17.40;58.10;;;;;;10369798;28;20586;-64
2021/11/14 22:45:23;;;;;;;24.63;15.07;;;17.50;58.00;;;;;;10385548;28;20684;-64
2021/11/14 22:50:46;;;;;;;23.10;14.07;;;17.50;57.90;;;;;;10401519;28;20194;-64
2021/11/14 22:56:10;;;;;;;24.20;15.33;;;17.50;58.10;;;;;;10410065;28;20277;-63
2021/11/14 23:01:32;;;;;;;27.37;15.27;;;17.40;58.00;;;;;;10409231;28;20220;-64
2021/11/14 23:06:56;;;;;;;28.30;17.20;;;17.50;57.90;;;;;;10409552;28;20214;-64
2021/11/14 23:12:20;;;;;;;26.43;16.23;;;17.50;57.70;;;;;;10416659;28;20202;-63
2021/11/14 23:17:43;;;;;;;24.77;15.73;;;17.50;57.70;;;;;;10417006;28;20225;-64
2021/11/14 23:23:06;;;;;;;26.50;15.37;;;17.50;57.90;;;;;;10407462;28;20218;-64
2021/11/14 23:28:28;;;;;;;25.00;15.63;;;17.50;58.10;;;;;;10388846;28;20216;-64
2021/11/14 23:33:50;;;;;;;23.10;13.93;;;17.40;58.30;;;;;;10416030;28;20186;-64
2021/11/14 23:39:18;;;;;;;22.97;14.10;;;17.40;58.40;;;;;;10415590;28;20209;-64
2021/11/14 23:44:41;;;;;;;30.83;16.20;;;17.40;58.30;;;;;;10383298;28;20210;-64
2021/11/14 23:50:05;;;;;;;24.30;14.77;;;17.40;58.00;;;;;;10378269;28;20312;-64
2021/11/14 23:55:29;;;;;;;22.97;12.47;;;17.40;57.70;;;;;;10375192;28;20215;-64
